sensor_id;sensor_type;location;lat;lon;timestamp;pressure;altitude;pressure_sealevel;temperature;humidity
39275;BME280;24980;48.874;2.332;2023-08-30T00:02:16;100607.36;;;24.76;45.86
39275;BME280;24980;48.874;2.332;2023-08-30T00:04:46;100609.02;;;24.74;45.87
39275;BME280;24980;48.874;2.332;2023-08-30T00:07:16;100606.56;;;24.75;45.87
39275;BME280;24980;48.874;2.332;2023-08-30T00:09:47;100607.52;;;24.73;45.88
39275;BME280;24980;48.874;2.332;2023-08-30T00:12:17;100606.77;;;24.73;45.88
39275;BME280;24980;48.874;2.332;2023-08-30T00:14:47;100605.59;;;24.73;45.89
39275;BME280;24980;48.874;2.332;2023-08-30T00:17:17;100601.34;;;24.73;45.88
39275;BME280;24980;48.874;2.332;2023-08-30T00:19:48;100598.86;;;24.71;45.88
39275;BME280;24980;48.874;2.332;2023-08-30T00:22:18;100597.77;;;24.71;45.88
39275;BME280;24980;48.874;2.332;2023-08-30T00:24:48;100595.74;;;24.70;45.89
39275;BME280;24980;48.874;2.332;2023-08-30T00:27:18;100593.38;;;24.70;45.88
39275;BME280;24980;48.874;2.332;2023-08-30T00:29:49;100588.25;;;24.69;45.89
39275;BME280;24980;48.874;2.332;2023-08-30T00:32:23;100584.47;;;24.68;45.89
39275;BME280;24980;48.874;2.332;2023-08-30T00:35:00;100581.59;;;24.68;45.89
39275;BME280;24980;48.874;2.332;2023-08-30T00:37:19;100579.62;;;24.68;45.90
39275;BME280;24980;48.874;2.332;2023-08-30T00:39:49;100574.56;;;24.67;45.90
39275;BME280;24980;48.874;2.332;2023-08-30T00:42:19;100571.44;;;24.66;45.91
39275;BME280;24980;48.874;2.332;2023-08-30T00:44:49;100566.73;;;24.66;45.91
39275;BME280;24980;48.874;2.332;2023-08-30T00:47:20;100566.40;;;24.66;45.92
39275;BME280;24980;48.874;2.332;2023-08-30T00:49:49;100568.96;;;24.65;45.93
39275;BME280;24980;48.874;2.332;2023-08-30T00:52:19;100565.23;;;24.65;45.94
39275;BME280;24980;48.874;2.332;2023-08-30T00:54:50;100562.46;;;24.63;45.93
39275;BME280;24980;48.874;2.332;2023-08-30T00:57:20;100561.36;;;24.64;45.93
39275;BME280;24980;48.874;2.332;2023-08-30T00:59:51;100558.73;;;24.63;45.93
39275;BME280;24980;48.874;2.332;2023-08-30T01:02:21;100555.02;;;24.63;45.93
39275;BME280;24980;48.874;2.332;2023-08-30T01:04:52;100556.84;;;24.62;45.92
39275;BME280;24980;48.874;2.332;2023-08-30T01:07:21;100552.09;;;24.62;45.92
39275;BME280;24980;48.874;2.332;2023-08-30T01:09:56;100546.60;;;24.61;45.91
39275;BME280;24980;48.874;2.332;2023-08-30T01:12:32;100544.05;;;24.61;45.91
39275;BME280;24980;48.874;2.332;2023-08-30T01:14:58;100544.41;;;24.61;45.90
39275;BME280;24980;48.874;2.332;2023-08-30T01:17:33;100543.06;;;24.60;45.90
39275;BME280;24980;48.874;2.332;2023-08-30T01:20:03;100538.06;;;24.60;45.90
39275;BME280;24980;48.874;2.332;2023-08-30T01:23:00;100533.67;;;24.60;45.90
39275;BME280;24980;48.874;2.332;2023-08-30T01:27:26;100531.18;;;24.59;45.91
39275;BME280;24980;48.874;2.332;2023-08-30T01:29:57;100528.66;;;24.58;45.92
39275;BME280;24980;48.874;2.332;2023-08-30T01:32:29;100526.80;;;24.58;45.92
39275;BME280;24980;48.874;2.332;2023-08-30T01:35:01;100527.58;;;24.56;45.93
39275;BME280;24980;48.874;2.332;2023-08-30T01:37:29;100526.52;;;24.56;45.93
39275;BME280;24980;48.874;2.332;2023-08-30T01:39:59;100526.17;;;24.56;45.94
39275;BME280;24980;48.874;2.332;2023-08-30T01:42:29;100516.80;;;24.55;45.94
39275;BME280;24980;48.874;2.332;2023-08-30T01:45:01;100516.12;;;24.55;45.94
39275;BME280;24980;48.874;2.332;2023-08-30T01:47:30;100517.23;;;24.54;45.94
39275;BME280;24980;48.874;2.332;2023-08-30T01:50:03;100514.70;;;24.54;45.94
39275;BME280;24980;48.874;2.332;2023-08-30T01:52:36;100513.81;;;24.53;45.94
39275;BME280;24980;48.874;2.332;2023-08-30T01:55:06;100509.58;;;24.53;45.95
39275;BME280;24980;48.874;2.332;2023-08-30T01:57:32;100507.06;;;24.52;45.95
39275;BME280;24980;48.874;2.332;2023-08-30T02:00:05;100507.06;;;24.51;45.95
39275;BME280;24980;48.874;2.332;2023-08-30T02:02:40;100505.89;;;24.51;45.95
39275;BME280;24980;48.874;2.332;2023-08-30T02:05:06;100505.81;;;24.51;45.95
39275;BME280;24980;48.874;2.332;2023-08-30T02:07:40;100508.27;;;24.50;45.96
39275;BME280;24980;48.874;2.332;2023-08-30T02:10:09;100503.88;;;24.50;45.99
39275;BME280;24980;48.874;2.332;2023-08-30T02:12:46;100501.75;;;24.50;46.02
39275;BME280;24980;48.874;2.332;2023-08-30T02:15:07;100503.77;;;24.51;46.02
39275;BME280;24980;48.874;2.332;2023-08-30T02:17:35;100502.85;;;24.50;46.02
39275;BME280;24980;48.874;2.332;2023-08-30T02:20:06;100497.86;;;24.50;46.00
39275;BME280;24980;48.874;2.332;2023-08-30T02:22:35;100503.24;;;24.49;45.99
39275;BME280;24980;48.874;2.332;2023-08-30T02:25:06;100504.19;;;24.49;45.98
39275;BME280;24980;48.874;2.332;2023-08-30T02:27:36;100499.72;;;24.48;45.98
39275;BME280;24980;48.874;2.332;2023-08-30T02:30:07;100504.70;;;24.48;45.98
39275;BME280;24980;48.874;2.332;2023-08-30T02:32:36;100498.20;;;24.47;45.97
39275;BME280;24980;48.874;2.332;2023-08-30T02:35:06;100495.91;;;24.47;45.96
39275;BME280;24980;48.874;2.332;2023-08-30T02:37:37;100491.64;;;24.46;45.94
39275;BME280;24980;48.874;2.332;2023-08-30T02:40:10;100494.31;;;24.47;45.94
39275;BME280;24980;48.874;2.332;2023-08-30T02:45:09;100488.19;;;24.46;45.93
39275;BME280;24980;48.874;2.332;2023-08-30T02:47:40;100485.57;;;24.45;45.93
39275;BME280;24980;48.874;2.332;2023-08-30T02:50:17;100484.58;;;24.44;45.93
39275;BME280;24980;48.874;2.332;2023-08-30T02:52:39;100490.66;;;24.44;45.93
39275;BME280;24980;48.874;2.332;2023-08-30T02:55:12;100492.41;;;24.43;45.92
39275;BME280;24980;48.874;2.332;2023-08-30T02:57:49;100489.95;;;24.43;45.92
39275;BME280;24980;48.874;2.332;2023-08-30T03:00:12;100484.36;;;24.43;45.92
39275;BME280;24980;48.874;2.332;2023-08-30T03:02:41;100486.73;;;24.43;45.92
39275;BME280;24980;48.874;2.332;2023-08-30T03:05:11;100487.69;;;24.42;45.92
39275;BME280;24980;48.874;2.332;2023-08-30T03:07:44;100493.20;;;24.42;45.92
39275;BME280;24980;48.874;2.332;2023-08-30T03:10:12;100492.87;;;24.42;45.90
39275;BME280;24980;48.874;2.332;2023-08-30T03:12:42;100489.67;;;24.40;45.90
39275;BME280;24980;48.874;2.332;2023-08-30T03:15:12;100490.34;;;24.40;45.90
39275;BME280;24980;48.874;2.332;2023-08-30T03:17:45;100488.36;;;24.39;45.90
39275;BME280;24980;48.874;2.332;2023-08-30T03:20:13;100488.97;;;24.39;45.91
39275;BME280;24980;48.874;2.332;2023-08-30T03:22:44;100491.86;;;24.38;45.90
39275;BME280;24980;48.874;2.332;2023-08-30T03:25:16;100493.39;;;24.38;45.91
39275;BME280;24980;48.874;2.332;2023-08-30T03:27:44;100492.48;;;24.37;45.91
39275;BME280;24980;48.874;2.332;2023-08-30T03:30:17;100483.79;;;24.37;45.90
39275;BME280;24980;48.874;2.332;2023-08-30T03:32:50;100482.86;;;24.36;45.90
39275;BME280;24980;48.874;2.332;2023-08-30T03:35:15;100482.20;;;24.35;45.90
39275;BME280;24980;48.874;2.332;2023-08-30T03:37:46;100479.06;;;24.35;45.89
39275;BME280;24980;48.874;2.332;2023-08-30T03:40:21;100478.75;;;24.35;45.91
39275;BME280;24980;48.874;2.332;2023-08-30T03:42:55;100477.55;;;24.35;45.91
39275;BME280;24980;48.874;2.332;2023-08-30T03:45:20;100478.06;;;24.35;45.91
39275;BME280;24980;48.874;2.332;2023-08-30T03:47:54;100475.02;;;24.35;45.91
39275;BME280;24980;48.874;2.332;2023-08-30T03:50:23;100471.20;;;24.35;45.92
39275;BME280;24980;48.874;2.332;2023-08-30T03:52:57;100470.55;;;24.34;45.93
39275;BME280;24980;48.874;2.332;2023-08-30T03:55:33;100470.45;;;24.34;45.92
39275;BME280;24980;48.874;2.332;2023-08-30T03:57:52;100475.08;;;24.34;45.93
39275;BME280;24980;48.874;2.332;2023-08-30T04:00:20;100470.09;;;24.33;45.93
39275;BME280;24980;48.874;2.332;2023-08-30T04:02:50;100468.66;;;24.33;45.93
39275;BME280;24980;48.874;2.332;2023-08-30T04:05:20;100467.21;;;24.33;45.94
39275;BME280;24980;48.874;2.332;2023-08-30T04:07:50;100466.45;;;24.33;45.95
39275;BME280;24980;48.874;2.332;2023-08-30T04:10:20;100460.86;;;24.33;45.96
39275;BME280;24980;48.874;2.332;2023-08-30T04:12:53;100461.20;;;24.33;45.96
39275;BME280;24980;48.874;2.332;2023-08-30T04:15:21;100457.82;;;24.32;45.96
39275;BME280;24980;48.874;2.332;2023-08-30T04:17:51;100460.88;;;24.32;45.96
39275;BME280;24980;48.874;2.332;2023-08-30T04:20:23;100466.13;;;24.32;45.97
39275;BME280;24980;48.874;2.332;2023-08-30T04:22:51;100460.47;;;24.31;45.98
39275;BME280;24980;48.874;2.332;2023-08-30T04:25:22;100459.97;;;24.31;45.99
39275;BME280;24980;48.874;2.332;2023-08-30T04:27:55;100457.34;;;24.31;45.99
39275;BME280;24980;48.874;2.332;2023-08-30T04:30:28;100450.73;;;24.31;46.01
39275;BME280;24980;48.874;2.332;2023-08-30T04:32:53;100449.52;;;24.29;46.03
39275;BME280;24980;48.874;2.332;2023-08-30T04:35:23;100446.06;;;24.29;46.06
39275;BME280;24980;48.874;2.332;2023-08-30T04:37:53;100441.80;;;24.30;46.10
39275;BME280;24980;48.874;2.332;2023-08-30T04:40:23;100439.87;;;24.29;46.12
39275;BME280;24980;48.874;2.332;2023-08-30T04:42:53;100438.41;;;24.30;46.14
39275;BME280;24980;48.874;2.332;2023-08-30T04:45:23;100439.10;;;24.30;46.17
39275;BME280;24980;48.874;2.332;2023-08-30T04:47:53;100434.03;;;24.29;46.18
39275;BME280;24980;48.874;2.332;2023-08-30T04:50:26;100439.28;;;24.29;46.21
39275;BME280;24980;48.874;2.332;2023-08-30T04:52:54;100431.92;;;24.28;46.21
39275;BME280;24980;48.874;2.332;2023-08-30T04:55:24;100434.55;;;24.28;46.23
39275;BME280;24980;48.874;2.332;2023-08-30T04:57:54;100432.27;;;24.28;46.25
39275;BME280;24980;48.874;2.332;2023-08-30T05:00:25;100435.66;;;24.28;46.26
39275;BME280;24980;48.874;2.332;2023-08-30T05:02:55;100435.50;;;24.28;46.30
39275;BME280;24980;48.874;2.332;2023-08-30T05:05:25;100432.37;;;24.28;46.31
39275;BME280;24980;48.874;2.332;2023-08-30T05:07:56;100428.38;;;24.28;46.32
39275;BME280;24980;48.874;2.332;2023-08-30T05:13:01;100424.66;;;24.28;46.30
39275;BME280;24980;48.874;2.332;2023-08-30T05:15:26;100421.61;;;24.27;46.28
39275;BME280;24980;48.874;2.332;2023-08-30T05:17:57;100418.95;;;24.27;46.28
39275;BME280;24980;48.874;2.332;2023-08-30T05:20:28;100419.45;;;24.27;46.27
39275;BME280;24980;48.874;2.332;2023-08-30T05:22:58;100419.97;;;24.26;46.27
39275;BME280;24980;48.874;2.332;2023-08-30T05:25:28;100421.09;;;24.25;46.27
39275;BME280;24980;48.874;2.332;2023-08-30T05:27:58;100428.12;;;24.25;46.27
39275;BME280;24980;48.874;2.332;2023-08-30T05:30:28;100421.88;;;24.24;46.27
39275;BME280;24980;48.874;2.332;2023-08-30T05:32:58;100425.69;;;24.24;46.26
39275;BME280;24980;48.874;2.332;2023-08-30T05:35:29;100424.12;;;24.24;46.27
39275;BME280;24980;48.874;2.332;2023-08-30T05:37:59;100425.14;;;24.24;46.27
39275;BME280;24980;48.874;2.332;2023-08-30T05:40:29;100423.96;;;24.23;46.27
39275;BME280;24980;48.874;2.332;2023-08-30T05:42:59;100426.09;;;24.23;46.28
39275;BME280;24980;48.874;2.332;2023-08-30T05:45:30;100427.88;;;24.22;46.29
39275;BME280;24980;48.874;2.332;2023-08-30T05:48:04;100432.54;;;24.22;46.29
39275;BME280;24980;48.874;2.332;2023-08-30T05:50:39;100435.17;;;24.22;46.30
39275;BME280;24980;48.874;2.332;2023-08-30T05:53:04;100433.98;;;24.22;46.31
39275;BME280;24980;48.874;2.332;2023-08-30T05:55:31;100436.70;;;24.21;46.32
39275;BME280;24980;48.874;2.332;2023-08-30T05:58:01;100429.25;;;24.21;46.33
39275;BME280;24980;48.874;2.332;2023-08-30T06:00:31;100440.18;;;24.21;46.34
39275;BME280;24980;48.874;2.332;2023-08-30T06:03:04;100437.81;;;24.21;46.36
39275;BME280;24980;48.874;2.332;2023-08-30T06:05:33;100446.66;;;24.21;46.37
39275;BME280;24980;48.874;2.332;2023-08-30T06:08:02;100445.48;;;24.20;46.37
39275;BME280;24980;48.874;2.332;2023-08-30T06:10:33;100448.29;;;24.19;46.39
39275;BME280;24980;48.874;2.332;2023-08-30T06:13:03;100448.12;;;24.19;46.40
39275;BME280;24980;48.874;2.332;2023-08-30T06:15:34;100445.92;;;24.19;46.41
39275;BME280;24980;48.874;2.332;2023-08-30T06:18:04;100447.36;;;24.19;46.42
39275;BME280;24980;48.874;2.332;2023-08-30T06:20:34;100452.70;;;24.19;46.43
39275;BME280;24980;48.874;2.332;2023-08-30T06:23:04;100448.40;;;24.18;46.44
39275;BME280;24980;48.874;2.332;2023-08-30T06:25:34;100447.17;;;24.17;46.45
39275;BME280;24980;48.874;2.332;2023-08-30T06:28:07;100449.64;;;24.17;46.45
39275;BME280;24980;48.874;2.332;2023-08-30T06:30:37;100447.09;;;24.17;46.46
39275;BME280;24980;48.874;2.332;2023-08-30T06:33:08;100448.78;;;24.17;46.46
39275;BME280;24980;48.874;2.332;2023-08-30T06:35:36;100452.95;;;24.16;46.48
39275;BME280;24980;48.874;2.332;2023-08-30T06:38:10;100446.77;;;24.17;46.50
39275;BME280;24980;48.874;2.332;2023-08-30T06:40:44;100443.90;;;24.16;46.50
39275;BME280;24980;48.874;2.332;2023-08-30T06:43:06;100448.89;;;24.16;46.51
39275;BME280;24980;48.874;2.332;2023-08-30T06:48:07;100450.69;;;24.15;46.54
39275;BME280;24980;48.874;2.332;2023-08-30T06:53:13;100454.30;;;24.14;46.56
39275;BME280;24980;48.874;2.332;2023-08-30T06:55:44;100454.55;;;24.14;46.57
39275;BME280;24980;48.874;2.332;2023-08-30T06:58:09;100453.06;;;24.12;46.59
39275;BME280;24980;48.874;2.332;2023-08-30T07:00:42;100450.60;;;24.12;46.62
39275;BME280;24980;48.874;2.332;2023-08-30T07:03:10;100457.98;;;24.12;46.63
39275;BME280;24980;48.874;2.332;2023-08-30T07:05:42;100454.25;;;24.12;46.65
39275;BME280;24980;48.874;2.332;2023-08-30T07:08:15;100452.73;;;24.11;46.65
39275;BME280;24980;48.874;2.332;2023-08-30T07:10:41;100457.89;;;24.12;46.66
39275;BME280;24980;48.874;2.332;2023-08-30T07:13:11;100457.56;;;24.11;46.67
39275;BME280;24980;48.874;2.332;2023-08-30T07:15:42;100459.34;;;24.11;46.67
39275;BME280;24980;48.874;2.332;2023-08-30T07:18:11;100458.91;;;24.11;46.68
39275;BME280;24980;48.874;2.332;2023-08-30T07:20:41;100459.10;;;24.10;46.71
39275;BME280;24980;48.874;2.332;2023-08-30T07:23:12;100457.16;;;24.08;46.74
39275;BME280;24980;48.874;2.332;2023-08-30T07:25:42;100452.87;;;24.06;46.78
39275;BME280;24980;48.874;2.332;2023-08-30T07:28:12;100460.66;;;24.01;46.81
39275;BME280;24980;48.874;2.332;2023-08-30T07:30:43;100453.84;;;23.92;46.85
39275;BME280;24980;48.874;2.332;2023-08-30T07:33:14;100452.57;;;23.77;46.93
39275;BME280;24980;48.874;2.332;2023-08-30T07:35:44;100451.45;;;23.66;46.99
39275;BME280;24980;48.874;2.332;2023-08-30T07:38:15;100452.05;;;23.62;46.98
39275;BME280;24980;48.874;2.332;2023-08-30T07:40:45;100449.36;;;23.58;46.94
39275;BME280;24980;48.874;2.332;2023-08-30T07:43:16;100454.67;;;23.53;46.95
39275;BME280;24980;48.874;2.332;2023-08-30T07:45:46;100455.62;;;23.51;46.92
39275;BME280;24980;48.874;2.332;2023-08-30T07:48:17;100458.97;;;23.53;46.87
39275;BME280;24980;48.874;2.332;2023-08-30T07:50:52;100459.26;;;23.55;46.85
39275;BME280;24980;48.874;2.332;2023-08-30T07:53:18;100461.94;;;23.60;46.81
39275;BME280;24980;48.874;2.332;2023-08-30T07:55:51;100462.58;;;23.63;46.76
39275;BME280;24980;48.874;2.332;2023-08-30T07:58:23;100461.80;;;23.68;46.74
39275;BME280;24980;48.874;2.332;2023-08-30T08:00:54;100456.03;;;23.69;46.75
39275;BME280;24980;48.874;2.332;2023-08-30T08:03:21;100464.60;;;23.70;46.75
39275;BME280;24980;48.874;2.332;2023-08-30T08:05:50;100460.62;;;23.67;46.78
39275;BME280;24980;48.874;2.332;2023-08-30T08:08:23;100459.10;;;23.60;46.82
39275;BME280;24980;48.874;2.332;2023-08-30T08:10:56;100457.22;;;23.55;46.87
39275;BME280;24980;48.874;2.332;2023-08-30T08:13:21;100452.09;;;23.54;46.88
39275;BME280;24980;48.874;2.332;2023-08-30T08:15:51;100452.63;;;23.56;46.84
39275;BME280;24980;48.874;2.332;2023-08-30T08:18:22;100454.85;;;23.55;46.84
39275;BME280;24980;48.874;2.332;2023-08-30T08:20:52;100455.62;;;23.55;46.86
39275;BME280;24980;48.874;2.332;2023-08-30T08:23:22;100453.14;;;23.53;46.87
39275;BME280;24980;48.874;2.332;2023-08-30T08:25:59;100452.80;;;23.50;46.90
39275;BME280;24980;48.874;2.332;2023-08-30T08:28:23;100452.59;;;23.51;46.90
39275;BME280;24980;48.874;2.332;2023-08-30T08:30:53;100459.09;;;23.48;46.89
39275;BME280;24980;48.874;2.332;2023-08-30T08:33:23;100465.09;;;23.42;46.93
39275;BME280;24980;48.874;2.332;2023-08-30T08:35:53;100464.60;;;23.37;46.96
39275;BME280;24980;48.874;2.332;2023-08-30T08:38:23;100465.83;;;23.40;46.91
39275;BME280;24980;48.874;2.332;2023-08-30T08:41:08;100461.70;;;23.42;46.88
39275;BME280;24980;48.874;2.332;2023-08-30T08:43:24;100460.72;;;23.44;46.86
39275;BME280;24980;48.874;2.332;2023-08-30T08:45:59;100466.97;;;23.44;46.85
39275;BME280;24980;48.874;2.332;2023-08-30T08:48:31;100467.47;;;23.44;46.84
39275;BME280;24980;48.874;2.332;2023-08-30T08:50:59;100469.65;;;23.46;46.83
39275;BME280;24980;48.874;2.332;2023-08-30T08:53:28;100472.52;;;23.46;46.81
39275;BME280;24980;48.874;2.332;2023-08-30T08:55:58;100470.32;;;23.50;46.80
39275;BME280;24980;48.874;2.332;2023-08-30T08:58:27;100462.12;;;23.56;46.75
39275;BME280;24980;48.874;2.332;2023-08-30T09:00:57;100471.80;;;23.60;46.72
39275;BME280;24980;48.874;2.332;2023-08-30T09:03:27;100470.45;;;23.63;46.72
39275;BME280;24980;48.874;2.332;2023-08-30T09:05:57;100470.39;;;23.66;46.72
39275;BME280;24980;48.874;2.332;2023-08-30T09:08:28;100470.33;;;23.68;46.72
39275;BME280;24980;48.874;2.332;2023-08-30T09:10:58;100477.28;;;23.71;46.72
39275;BME280;24980;48.874;2.332;2023-08-30T09:13:34;100476.86;;;23.74;46.72
39275;BME280;24980;48.874;2.332;2023-08-30T09:15:59;100474.98;;;23.78;46.72
39275;BME280;24980;48.874;2.332;2023-08-30T09:18:29;100470.18;;;23.80;46.72
39275;BME280;24980;48.874;2.332;2023-08-30T09:21:09;100475.09;;;23.83;46.72
39275;BME280;24980;48.874;2.332;2023-08-30T09:23:30;100479.12;;;23.84;46.73
39275;BME280;24980;48.874;2.332;2023-08-30T09:26:01;100472.05;;;23.83;46.75
39275;BME280;24980;48.874;2.332;2023-08-30T09:28:42;100466.36;;;23.80;46.79
39275;BME280;24980;48.874;2.332;2023-08-30T09:31:01;100469.00;;;23.77;46.79
39275;BME280;24980;48.874;2.332;2023-08-30T09:33:33;100463.47;;;23.75;46.78
39275;BME280;24980;48.874;2.332;2023-08-30T09:36:02;100468.67;;;23.70;46.76
39275;BME280;24980;48.874;2.332;2023-08-30T09:38:32;100470.51;;;23.68;46.74
39275;BME280;24980;48.874;2.332;2023-08-30T09:41:09;100469.72;;;23.66;46.68
39275;BME280;24980;48.874;2.332;2023-08-30T09:43:32;100469.32;;;23.65;46.61
39275;BME280;24980;48.874;2.332;2023-08-30T09:46:03;100464.48;;;23.63;46.57
39275;BME280;24980;48.874;2.332;2023-08-30T09:48:36;100469.08;;;23.61;46.50
39275;BME280;24980;48.874;2.332;2023-08-30T09:51:10;100462.40;;;23.57;46.46
39275;BME280;24980;48.874;2.332;2023-08-30T09:53:41;100467.62;;;23.58;46.38
39275;BME280;24980;48.874;2.332;2023-08-30T09:56:07;100457.23;;;23.58;46.30
39275;BME280;24980;48.874;2.332;2023-08-30T09:58:44;100445.48;;;23.61;46.25
39275;BME280;24980;48.874;2.332;2023-08-30T10:01:13;100444.55;;;23.61;46.17
39275;BME280;24980;48.874;2.332;2023-08-30T10:03:37;100449.86;;;23.58;46.11
39275;BME280;24980;48.874;2.332;2023-08-30T10:06:10;100452.72;;;23.56;46.05
39275;BME280;24980;48.874;2.332;2023-08-30T10:08:38;100455.02;;;23.59;45.98
39275;BME280;24980;48.874;2.332;2023-08-30T10:11:10;100458.83;;;23.62;45.89
39275;BME280;24980;48.874;2.332;2023-08-30T10:13:42;100463.64;;;23.65;45.82
39275;BME280;24980;48.874;2.332;2023-08-30T10:16:14;100464.16;;;23.65;45.75
39275;BME280;24980;48.874;2.332;2023-08-30T10:18:41;100456.78;;;23.66;45.72
39275;BME280;24980;48.874;2.332;2023-08-30T10:21:12;100455.28;;;23.71;45.63
39275;BME280;24980;48.874;2.332;2023-08-30T10:23:43;100457.75;;;23.73;45.58
39275;BME280;24980;48.874;2.332;2023-08-30T10:26:12;100457.89;;;23.72;45.53
39275;BME280;24980;48.874;2.332;2023-08-30T10:28:43;100464.85;;;23.76;45.47
39275;BME280;24980;48.874;2.332;2023-08-30T10:31:13;100460.75;;;23.82;45.36
39275;BME280;24980;48.874;2.332;2023-08-30T10:33:49;100463.05;;;23.81;45.33
39275;BME280;24980;48.874;2.332;2023-08-30T10:36:22;100458.99;;;23.81;45.28
39275;BME280;24980;48.874;2.332;2023-08-30T10:38:48;100455.77;;;23.81;45.24
39275;BME280;24980;48.874;2.332;2023-08-30T10:41:21;100456.88;;;23.84;45.19
39275;BME280;24980;48.874;2.332;2023-08-30T10:43:50;100461.25;;;23.88;45.13
39275;BME280;24980;48.874;2.332;2023-08-30T10:46:16;100458.98;;;23.90;45.06
39275;BME280;24980;48.874;2.332;2023-08-30T10:51:21;100461.88;;;23.95;44.92
39275;BME280;24980;48.874;2.332;2023-08-30T10:54:00;100466.08;;;23.97;44.86
39275;BME280;24980;48.874;2.332;2023-08-30T10:56:17;100462.55;;;24.02;44.78
39275;BME280;24980;48.874;2.332;2023-08-30T10:58:52;100451.10;;;24.08;44.69
39275;BME280;24980;48.874;2.332;2023-08-30T11:01:18;100458.27;;;24.17;44.63
39275;BME280;24980;48.874;2.332;2023-08-30T11:03:49;100463.85;;;24.23;44.54
39275;BME280;24980;48.874;2.332;2023-08-30T11:06:18;100460.16;;;24.21;44.51
39275;BME280;24980;48.874;2.332;2023-08-30T11:08:50;100460.47;;;24.20;44.49
39275;BME280;24980;48.874;2.332;2023-08-30T11:16:23;100458.42;;;24.08;44.53
39275;BME280;24980;48.874;2.332;2023-08-30T11:18:52;100454.56;;;24.08;44.53
39275;BME280;24980;48.874;2.332;2023-08-30T11:21:22;100449.53;;;24.11;44.49
39275;BME280;24980;48.874;2.332;2023-08-30T11:23:52;100455.34;;;24.15;44.45
39275;BME280;24980;48.874;2.332;2023-08-30T11:26:22;100449.50;;;24.18;44.42
39275;BME280;24980;48.874;2.332;2023-08-30T11:28:52;100456.67;;;24.19;44.41
39275;BME280;24980;48.874;2.332;2023-08-30T11:31:23;100454.53;;;24.21;44.39
39275;BME280;24980;48.874;2.332;2023-08-30T11:33:57;100451.41;;;24.23;44.34
39275;BME280;24980;48.874;2.332;2023-08-30T11:36:28;100443.29;;;24.25;44.31
39275;BME280;24980;48.874;2.332;2023-08-30T11:38:56;100448.78;;;24.26;44.30
39275;BME280;24980;48.874;2.332;2023-08-30T11:41:25;100449.11;;;24.29;44.29
39275;BME280;24980;48.874;2.332;2023-08-30T11:43:55;100446.98;;;24.32;44.26
39275;BME280;24980;48.874;2.332;2023-08-30T11:46:25;100450.51;;;24.36;44.23
39275;BME280;24980;48.874;2.332;2023-08-30T11:48:59;100442.81;;;24.41;44.18
39275;BME280;24980;48.874;2.332;2023-08-30T11:51:29;100443.62;;;24.45;44.15
39275;BME280;24980;48.874;2.332;2023-08-30T11:54:01;100444.21;;;24.51;44.13
39275;BME280;24980;48.874;2.332;2023-08-30T11:56:31;100444.55;;;24.56;44.12
39275;BME280;24980;48.874;2.332;2023-08-30T11:59:02;100443.12;;;24.62;44.12
39275;BME280;24980;48.874;2.332;2023-08-30T12:01:29;100439.41;;;24.66;44.12
39275;BME280;24980;48.874;2.332;2023-08-30T12:04:10;100433.55;;;24.69;44.10
39275;BME280;24980;48.874;2.332;2023-08-30T12:06:29;100432.98;;;24.72;44.08
39275;BME280;24980;48.874;2.332;2023-08-30T12:09:00;100434.79;;;24.73;44.07
39275;BME280;24980;48.874;2.332;2023-08-30T12:11:36;100440.00;;;24.75;44.03
39275;BME280;24980;48.874;2.332;2023-08-30T12:14:02;100440.53;;;24.77;44.02
39275;BME280;24980;48.874;2.332;2023-08-30T12:16:32;100441.05;;;24.77;44.01
39275;BME280;24980;48.874;2.332;2023-08-30T12:19:13;100442.06;;;24.77;44.01
39275;BME280;24980;48.874;2.332;2023-08-30T12:21:43;100438.75;;;24.77;43.99
39275;BME280;24980;48.874;2.332;2023-08-30T12:24:04;100436.55;;;24.77;43.97
39275;BME280;24980;48.874;2.332;2023-08-30T12:26:33;100441.56;;;24.76;43.96
39275;BME280;24980;48.874;2.332;2023-08-30T12:29:09;100441.73;;;24.76;43.92
39275;BME280;24980;48.874;2.332;2023-08-30T12:31:34;100447.73;;;24.75;43.90
39275;BME280;24980;48.874;2.332;2023-08-30T12:34:06;100457.16;;;24.74;43.89
39275;BME280;24980;48.874;2.332;2023-08-30T12:36:35;100458.28;;;24.73;43.87
39275;BME280;24980;48.874;2.332;2023-08-30T12:39:05;100456.92;;;24.73;43.87
39275;BME280;24980;48.874;2.332;2023-08-30T12:41:35;100455.62;;;24.72;43.90
39275;BME280;24980;48.874;2.332;2023-08-30T12:44:05;100458.59;;;24.74;43.93
39275;BME280;24980;48.874;2.332;2023-08-30T12:46:36;100453.93;;;24.74;43.97
39275;BME280;24980;48.874;2.332;2023-08-30T12:49:06;100462.40;;;24.74;44.01
39275;BME280;24980;48.874;2.332;2023-08-30T12:51:36;100466.17;;;24.72;44.07
39275;BME280;24980;48.874;2.332;2023-08-30T12:54:11;100465.89;;;24.71;44.14
39275;BME280;24980;48.874;2.332;2023-08-30T12:56:36;100466.25;;;24.70;44.20
39275;BME280;24980;48.874;2.332;2023-08-30T12:59:07;100464.57;;;24.69;44.29
39275;BME280;24980;48.874;2.332;2023-08-30T13:01:41;100463.16;;;24.69;44.36
39275;BME280;24980;48.874;2.332;2023-08-30T13:04:10;100464.30;;;24.73;44.38
39275;BME280;24980;48.874;2.332;2023-08-30T13:06:40;100461.30;;;24.74;44.38
39275;BME280;24980;48.874;2.332;2023-08-30T13:09:09;100466.30;;;24.74;44.36
39275;BME280;24980;48.874;2.332;2023-08-30T13:11:44;100460.06;;;24.72;44.36
39275;BME280;24980;48.874;2.332;2023-08-30T13:14:10;100458.92;;;24.72;44.38
39275;BME280;24980;48.874;2.332;2023-08-30T13:16:40;100461.64;;;24.72;44.39
39275;BME280;24980;48.874;2.332;2023-08-30T13:19:10;100462.09;;;24.70;44.41
39275;BME280;24980;48.874;2.332;2023-08-30T13:21:40;100463.61;;;24.73;44.40
39275;BME280;24980;48.874;2.332;2023-08-30T13:24:10;100458.76;;;24.74;44.41
39275;BME280;24980;48.874;2.332;2023-08-30T13:26:40;100466.03;;;24.75;44.38